Terminal Aerodrome Forecast
Issued by NWS Twin Cities, MN

Home | Current Version | Previous Version | Graphics & Text | Print | Product List | Glossary On
Versions: 1 2 3 4 5 6 7 8 9 10 11 12 13 14 15 16 17 18 19 20 21 22 23 24 25
015
FTUS43 KMPX 191409 AAA
TAFMSP
TAF AMD
KMSP 191409Z 1914/2018 30012G22KT P6SM SCT030 SCT250
     FM191700 30012G20KT P6SM VCSH SCT050 BKN090
     FM192100 30012G20KT P6SM SCT050 BKN090
     FM200200 28007KT P6SM SCT110 SCT250
     FM200600 VRB03KT P6SM VCSH SCT050 BKN090
     FM201200 29006KT P6SM SCT050 SCT100=

USA.gov is the U.S. government's official web portal to all federal, state and local government web resources and services.